createdAt,value
2023-10-22T00:02:26.464Z,19.91
2023-10-22T00:12:50.459Z,20.27
2023-10-22T00:23:14.205Z,18.52
2023-10-22T00:33:38.696Z,16.11
2023-10-22T00:44:02.733Z,14.77
2023-10-22T00:54:27.344Z,14.07
2023-10-22T01:04:51.779Z,14.53
2023-10-22T01:15:15.450Z,17.26
2023-10-22T01:25:39.377Z,18.18
2023-10-22T01:36:03.767Z,18.54
2023-10-22T01:46:27.675Z,19.13
2023-10-22T01:56:51.795Z,19.32
2023-10-22T02:07:16.565Z,19.27
2023-10-22T02:17:40.223Z,19.24
2023-10-22T02:28:04.513Z,18.73
2023-10-22T02:38:29.171Z,18.70
2023-10-22T02:48:53.241Z,18.86
2023-10-22T02:59:17.698Z,19.11
2023-10-22T03:09:42.286Z,18.71
2023-10-22T03:20:07.862Z,18.08
2023-10-22T03:30:31.759Z,17.74
2023-10-22T03:41:00.532Z,17.86
2023-10-22T03:51:24.885Z,17.78
2023-10-22T04:01:48.758Z,17.64
2023-10-22T04:12:12.904Z,17.29
2023-10-22T04:22:38.361Z,17.25
2023-10-22T04:33:02.405Z,17.31
2023-10-22T04:43:26.737Z,17.45
2023-10-22T04:53:50.820Z,17.92
2023-10-22T05:04:14.637Z,18.30
2023-10-22T05:14:38.786Z,18.71
2023-10-22T05:25:02.791Z,18.22
2023-10-22T05:35:26.669Z,17.17
2023-10-22T05:45:57.523Z,16.88
2023-10-22T05:56:25.006Z,16.97
2023-10-22T06:06:48.537Z,16.91
2023-10-22T06:17:12.436Z,16.90
2023-10-22T06:27:36.308Z,16.67
2023-10-22T06:38:00.377Z,16.53
2023-10-22T06:48:25.044Z,16.51
2023-10-22T06:58:49.306Z,16.52
2023-10-22T07:09:13.317Z,16.43
2023-10-22T07:19:37.875Z,16.42
2023-10-22T07:30:03.861Z,16.48
2023-10-22T07:40:28.017Z,16.53
2023-10-22T07:50:52.669Z,16.51
2023-10-22T08:01:19.027Z,16.53
2023-10-22T08:11:55.136Z,16.43
2023-10-22T08:22:21.523Z,16.45
2023-10-22T08:32:54.682Z,16.43
2023-10-22T08:43:22.647Z,16.39
2023-10-22T08:53:49.775Z,16.45
2023-10-22T09:04:16.929Z,16.38
2023-10-22T09:14:45.380Z,16.41
2023-10-22T09:30:33.207Z,16.52
2023-10-22T09:41:01.105Z,16.62
2023-10-22T09:51:28.439Z,16.75
2023-10-22T10:01:53.653Z,16.92
2023-10-22T10:12:18.228Z,16.95
2023-10-22T10:22:47.514Z,17.07
2023-10-22T10:33:17.506Z,17.19
2023-10-22T10:44:00.870Z,17.11
2023-10-22T10:54:24.813Z,17.22
2023-10-22T11:04:49.440Z,17.42
2023-10-22T11:15:14.444Z,17.57
2023-10-22T11:25:38.668Z,17.70
2023-10-22T11:36:17.469Z,17.70
2023-10-22T11:46:42.221Z,18.09
2023-10-22T11:57:06.516Z,18.44
2023-10-22T12:07:31.080Z,18.72
2023-10-22T12:17:56.346Z,18.85
2023-10-22T12:28:24.990Z,19.20
2023-10-22T12:38:49.828Z,19.12
2023-10-22T12:49:13.849Z,19.12
2023-10-22T12:59:37.658Z,19.31
2023-10-22T13:10:02.499Z,19.67
2023-10-22T13:20:26.497Z,19.74
2023-10-22T13:30:50.709Z,20.05
2023-10-22T13:41:15.229Z,20.45
2023-10-22T13:51:39.528Z,21.20
2023-10-22T14:02:03.325Z,21.72
2023-10-22T14:12:28.029Z,20.10
2023-10-22T14:22:51.924Z,19.70
2023-10-22T14:33:16.448Z,22.44
2023-10-22T14:43:40.888Z,23.62
2023-10-22T14:54:04.957Z,21.86
2023-10-22T15:04:28.995Z,19.88
2023-10-22T15:14:53.576Z,18.67
2023-10-22T15:25:18.776Z,18.73
2023-10-22T15:36:07.033Z,20.59
2023-10-22T15:46:32.013Z,19.48
2023-10-22T15:56:57.736Z,18.36
2023-10-22T16:13:39.941Z,18.19
2023-10-22T16:24:39.058Z,17.25
2023-10-22T16:35:38.143Z,18.57
2023-10-22T16:46:02.647Z,19.00
2023-10-22T16:56:27.174Z,19.07
2023-10-22T17:06:58.339Z,18.69
2023-10-22T17:17:24.003Z,18.67
2023-10-22T17:27:48.972Z,18.86
2023-10-22T17:38:15.844Z,18.55
2023-10-22T17:48:41.435Z,16.17
2023-10-22T17:59:05.702Z,14.90
2023-10-22T18:09:31.450Z,16.87
2023-10-22T18:20:01.676Z,17.49
2023-10-22T18:30:28.320Z,17.48
2023-10-22T18:40:52.806Z,17.31
2023-10-22T18:51:19.447Z,16.97
2023-10-22T19:01:44.039Z,17.00
2023-10-22T19:12:08.136Z,17.25
2023-10-22T19:22:32.518Z,17.09
2023-10-22T19:32:57.198Z,17.54
2023-10-22T19:43:21.668Z,17.87
2023-10-22T19:53:50.548Z,16.46
2023-10-22T20:04:15.102Z,13.91
2023-10-22T20:14:40.146Z,14.70
2023-10-22T20:25:04.940Z,16.51
2023-10-22T20:35:29.904Z,17.10
2023-10-22T20:45:54.879Z,17.29
2023-10-22T20:56:21.234Z,17.16
2023-10-22T21:06:45.636Z,17.09
2023-10-22T21:17:10.037Z,17.18
2023-10-22T21:27:34.341Z,17.15
2023-10-22T21:37:58.490Z,16.96
2023-10-22T21:48:22.755Z,17.09
2023-10-22T21:58:47.028Z,17.28
2023-10-22T22:09:11.929Z,17.45
2023-10-22T22:19:35.971Z,17.32
2023-10-22T22:29:59.796Z,17.09
2023-10-22T22:40:24.104Z,16.79
2023-10-22T22:50:48.052Z,16.74
2023-10-22T23:01:11.710Z,16.75
2023-10-22T23:11:36.077Z,16.94
2023-10-22T23:22:00.257Z,17.17
2023-10-22T23:32:23.996Z,17.25
2023-10-22T23:42:48.392Z,17.41
2023-10-22T23:53:12.678Z,17.64
